Latest Weather Observations for Kalumburu

IDD60801

Issued at 7:01 pm CST Sunday 20 August 2017 (issued every 30 minutes, with the page automatically refreshed every 10 minutes)

About weather observations | Map of weather stations | Latest weather observations for NT | Other Formats
Station Details ID: 001019 Name: KALUMBURU Lat: -14.30 Lon: 126.65 Height: 23.0 m
Data from the previous 72 hours. | See also: Recent months at Kalumburu
Date/Time
CST
Temp
°C
App
Temp
°C
Dew
Point
°C
Rel
Hum
%
Delta-T
°C
Wind Press
QNH
hPa
Press
MSL
hPa
Rain since
9am
mm
Dir  Spd
km/h
Gust
km/h
Spd
kts
Gust
kts
20/07:00pm 28.1 28.4 17.9 54 6.5 N 13 20 7 11 1011.3 1011.2 0.0
20/06:30pm 29.1 28.9 17.6 50 7.3 NNW 15 20 8 11 1011.2 1011.1 0.0
20/06:00pm 30.2 29.5 18.3 49 7.7 NNW 19 30 10 16 1010.9 1010.8 0.0
20/05:30pm 30.8 29.5 18.2 47 8.1 NNW 22 32 12 17 1010.7 1010.6 0.0
20/05:00pm 31.7 30.0 17.2 42 9.2 NNW 22 30 12 16 1010.4 1010.3 0.0
20/04:30pm 33.2 30.7 15.2 33 11.2 N 22 28 12 15 1010.3 1010.2 0.0
20/04:00pm 33.5 30.8 15.5 34 11.2 NNW 24 32 13 17 1010.4 1010.3 0.0
20/03:30pm 34.2 31.2 14.7 31 12.1 N 24 33 13 18 1010.7 1010.6 0.0
20/03:00pm 35.6 31.8 12.5 24 13.9 N 24 37 13 20 1010.8 1010.7 0.0
20/02:30pm 37.2 35.8 13.3 24 14.7 N 13 28 7 15 1011.2 1011.1 0.0
20/02:00pm 37.0 33.3 6.1 15 17.0 NE 15 28 8 15 1011.7 1011.6 0.0
20/01:30pm 37.4 33.3 6.4 15 17.2 ENE 17 26 9 14 1012.2 1012.1 0.0
20/01:00pm 36.1 32.8 8.0 18 15.8 E 15 22 8 12 1012.7 1012.6 0.0
20/12:30pm 36.1 33.4 8.8 19 15.6 ENE 13 26 7 14 1013.1 1013.0 0.0
20/12:00pm 35.6 34.3 12.5 24 13.9 ENE 11 19 6 10 1013.7 1013.6 0.0
20/11:30am 34.8 33.1 11.2 24 13.9 ENE 11 20 6 11 1014.0 1013.9 0.0
20/11:00am 33.9 32.5 13.4 29 12.4 SE 13 22 7 12 1014.3 1014.2 0.0
20/10:30am 30.8 32.6 18.8 48 7.8 SW 7 11 4 6 1014.5 1014.4 0.0
20/10:00am 29.0 31.1 20.2 59 5.8 S 9 13 5 7 1014.6 1014.5 0.0
20/09:30am 26.8 29.0 20.4 68 4.2 SSW 9 13 5 7 1014.6 1014.5 0.0
20/09:00am 24.9 27.7 20.8 78 2.7 S 7 13 4 7 1014.5 1014.4 0.0
20/08:30am 23.6 28.3 21.9 90 1.1 CALM 0 0 0 0 1014.3 1014.2 0.0
20/08:00am 21.5 25.3 20.1 92 0.9 CALM 0 0 0 0 1014.2 1014.1 0.0
20/07:30am 19.1 21.7 17.6 91 0.9 CALM 0 0 0 0 1014.0 1013.9 0.0
20/07:00am 19.5 22.3 18.0 91 0.9 CALM 0 0 0 0 1013.7 1013.6 0.0
20/06:30am 20.2 22.9 18.7 91 0.9 N 2 6 1 3 1013.4 1013.3 0.0
20/06:00am 19.2 21.4 17.5 90 1.0 ESE 2 7 1 4 1013.4 1013.3 0.0
20/05:30am 20.1 23.2 18.6 91 0.9 CALM 0 0 0 0 1013.2 1013.1 0.0
20/05:00am 20.2 23.2 18.5 90 1.1 CALM 0 0 0 0 1013.0 1012.9 0.0
20/04:30am 20.4 23.2 18.9 91 0.9 N 2 6 1 3 1013.0 1012.9 0.0
20/04:00am 20.1 23.2 18.6 91 0.9 CALM 0 0 0 0 1012.9 1012.8 0.0
20/03:30am 20.2 22.8 18.5 90 1.1 S 2 6 1 3 1013.0 1012.9 0.0
20/03:00am 20.0 22.9 18.3 90 1.1 CALM 0 0 0 0 1013.1 1013.0 0.0
20/02:30am 20.6 23.8 18.9 90 1.1 CALM 0 0 0 0 1013.1 1013.0 0.0
20/02:00am 20.3 23.3 18.4 89 1.2 CALM 0 0 0 0 1013.4 1013.3 0.0
20/01:30am 20.6 23.6 18.5 88 1.3 CALM 0 0 0 0 1013.6 1013.5 0.0
20/01:00am 20.7 23.9 18.8 89 1.2 CALM 0 0 0 0 1013.8 1013.7 0.0
20/12:30am 21.1 24.4 19.2 89 1.2 CALM 0 0 0 0 1013.9 1013.8 0.0
20/12:00am 21.3 24.6 19.2 88 1.3 CALM 0 0 0 0 1013.9 1013.8 0.0
 
Date/Time
CST
Temp
°C
App
Temp
°C
Dew
Point
°C
Rel
Hum
%
Delta-T
°C
Wind Press
QNH
hPa
Press
MSL
hPa
Rain since
9am
mm
Dir  Spd
km/h
Gust
km/h
Spd
kts
Gust
kts
19/11:30pm 21.7 25.3 19.8 89 1.2 CALM 0 0 0 0 1014.1 1014.0 0.0
19/11:00pm 21.9 25.4 19.6 87 1.5 CALM 0 0 0 0 1014.2 1014.1 0.0
19/10:30pm 22.0 25.4 19.4 85 1.7 CALM 0 0 0 0 1014.4 1014.3 0.0
19/10:00pm 22.5 26.2 20.0 86 1.6 CALM 0 0 0 0 1014.2 1014.1 0.0
19/09:30pm 23.5 27.5 20.6 84 1.9 CALM 0 0 0 0 1014.1 1014.0 0.0
19/09:00pm 24.0 27.9 20.3 80 2.4 CALM 0 0 0 0 1014.0 1013.9 0.0
19/08:30pm 25.1 28.1 20.8 77 2.8 NNW 6 7 3 4 1013.5 1013.4 0.0
19/08:00pm 26.2 29.3 21.0 73 3.4 N 6 9 3 5 1013.3 1013.2 0.0
19/07:30pm 26.8 29.9 21.1 71 3.8 NNW 6 9 3 5 1012.8 1012.7 0.0
19/07:00pm 27.7 30.5 20.8 66 4.6 NNW 7 13 4 7 1012.3 1012.2 0.0
19/06:30pm 29.2 30.2 19.5 56 6.3 N 13 20 7 11 1011.8 1011.7 0.0
19/06:00pm 30.5 31.0 19.2 51 7.4 N 15 22 8 12 1011.3 1011.2 0.0
19/05:30pm 31.2 32.4 19.9 51 7.5 NNW 13 20 7 11 1011.0 1010.9 0.0
19/05:00pm 31.8 32.9 20.4 51 7.6 NNW 15 22 8 12 1010.8 1010.7 0.0
19/04:30pm 31.9 32.1 20.2 50 7.8 NNW 19 26 10 14 1010.9 1010.8 0.0
19/04:00pm 33.0 33.0 20.2 47 8.5 N 20 26 11 14 1011.3 1011.2 0.0
19/03:30pm 33.4 33.3 19.5 44 9.2 N 19 28 10 15 1011.5 1011.4 0.0
19/03:00pm 33.9 33.3 18.4 40 10.1 NNW 19 30 10 16 1011.9 1011.8 0.0
19/02:30pm 34.0 33.2 18.5 40 10.1 NNW 20 30 11 16 1012.2 1012.1 0.0
19/02:00pm 34.3 33.8 17.9 37 10.6 NNW 17 24 9 13 1012.5 1012.4 0.0
19/01:30pm 33.6 34.0 18.9 41 9.6 NW 15 24 8 13 1013.1 1013.0 0.0
19/01:00pm 32.8 32.8 19.7 46 8.7 NNW 19 28 10 15 1013.5 1013.4 0.0
19/12:30pm 33.0 32.9 19.5 45 8.9 NNW 19 28 10 15 1013.9 1013.8 0.0
19/12:00pm 33.2 33.5 17.0 38 10.3 NNW 11 19 6 10 1014.3 1014.2 0.0
19/11:30am 32.8 33.5 16.2 37 10.4 WNW 7 9 4 5 1014.9 1014.8 0.0
19/11:00am 31.8 33.9 18.0 43 8.9 SSW 4 9 2 5 1015.3 1015.2 0.0
19/10:30am 30.4 31.5 17.1 44 8.4 SSW 7 9 4 5 1015.6 1015.5 0.0
19/10:00am 28.8 30.6 18.3 53 6.7 S 6 9 3 5 1015.7 1015.6 0.0
19/09:30am 27.4 29.7 19.5 62 5.1 NNW 6 7 3 4 1015.6 1015.5 0.0
19/09:00am 25.7 29.5 20.9 75 3.2 N 2 7 1 4 1015.5 1015.4 0.0
19/08:30am 23.6 28.2 21.7 89 1.3 CALM 0 0 0 0 1015.1 1015.0 0.0
19/08:00am 20.8 24.2 19.3 91 0.9 CALM 0 6 0 3 1014.9 1014.8 0.0
19/07:30am 20.1 23.2 18.6 91 0.9 CALM 0 0 0 0 1014.5 1014.4 0.0
19/07:00am 19.9 22.8 18.2 90 1.1 CALM 0 0 0 0 1014.1 1014.0 0.0
19/06:30am 20.7 24.0 19.2 91 0.9 CALM 0 0 0 0 1013.7 1013.6 0.0
19/06:00am 20.4 23.5 18.7 90 1.1 CALM 0 0 0 0 1013.3 1013.2 0.0
19/05:30am 20.5 23.7 18.8 90 1.1 CALM 0 0 0 0 1013.0 1012.9 0.0
19/05:00am 20.5 23.7 18.8 90 1.1 CALM 0 0 0 0 1013.0 1012.9 0.0
19/04:30am 20.3 23.4 18.6 90 1.1 CALM 0 0 0 0 1012.9 1012.8 0.0
19/04:00am 20.2 23.1 18.3 89 1.2 CALM 0 0 0 0 1013.1 1013.0 0.0
19/03:30am 20.5 23.6 18.6 89 1.2 CALM 0 0 0 0 1013.3 1013.2 0.0
19/03:00am 20.8 23.9 18.7 88 1.3 CALM 0 0 0 0 1013.5 1013.4 0.0
19/02:30am 21.3 24.7 19.4 89 1.2 CALM 0 0 0 0 1013.6 1013.5 0.0
19/02:00am 21.2 24.5 19.1 88 1.3 CALM 0 0 0 0 1013.8 1013.7 0.0
19/01:30am 21.5 24.9 19.4 88 1.3 CALM 0 0 0 0 1013.9 1013.8 0.0
19/01:00am 21.7 25.1 19.4 87 1.5 CALM 0 0 0 0 1014.1 1014.0 0.0
19/12:30am 21.8 24.3 19.9 89 1.2 SSE 6 7 3 4 1014.2 1014.1 0.0
19/12:00am 22.3 25.9 19.8 86 1.6 CALM 0 0 0 0 1014.2 1014.1 0.0
 
Date/Time
CST
Temp
°C
App
Temp
°C
Dew
Point
°C
Rel
Hum
%
Delta-T
°C
Wind Press
QNH
hPa
Press
MSL
hPa
Rain since
9am
mm
Dir  Spd
km/h
Gust
km/h
Spd
kts
Gust
kts
18/11:30pm 22.5 26.3 20.2 87 1.5 CALM 0 0 0 0 1014.3 1014.2 0.0
18/11:00pm 23.2 27.3 20.7 86 1.6 CALM 0 0 0 0 1014.5 1014.4 0.0
18/10:30pm 23.5 27.6 20.8 85 1.8 CALM 0 0 0 0 1014.4 1014.3 0.0
18/10:00pm 24.0 28.0 20.5 81 2.3 CALM 0 0 0 0 1014.3 1014.2 0.0
18/09:30pm 25.4 28.5 21.1 77 2.8 N 6 9 3 5 1014.1 1014.0 0.0
18/09:00pm 25.7 29.0 21.4 77 2.9 N 6 9 3 5 1013.7 1013.6 0.0
18/08:30pm 26.2 28.9 21.4 75 3.2 N 9 11 5 6 1013.2 1013.1 0.0
18/08:00pm 26.5 29.0 21.0 72 3.6 N 9 13 5 7 1012.5 1012.4 0.0
18/07:30pm 26.7 28.6 19.8 66 4.5 N 9 11 5 6 1012.1 1012.0 0.0
18/07:00pm 27.3 28.5 20.6 67 4.4 N 15 20 8 11 1011.7 1011.6 0.0
18/06:30pm 28.3 29.6 20.8 63 5.0 NNW 15 24 8 13 1011.5 1011.4 0.0
18/06:00pm 29.2 30.5 20.9 61 5.5 N 15 20 8 11 1011.2 1011.1 0.0
18/05:30pm 30.0 30.1 20.0 55 6.6 N 19 24 10 13 1010.9 1010.8 0.0
18/05:00pm 31.4 31.5 20.0 50 7.5 N 19 28 10 15 1010.7 1010.6 0.0
18/04:30pm 31.6 30.6 17.9 44 8.8 NNW 20 28 11 15 1010.7 1010.6 0.0
18/04:00pm 31.6 30.9 19.6 49 7.9 N 22 30 12 16 1010.8 1010.7 0.0
18/03:30pm 32.0 31.6 19.3 47 8.3 N 20 26 11 14 1010.9 1010.8 0.0
18/03:00pm 33.4 33.6 20.5 46 8.6 NNW 20 28 11 15 1011.0 1010.9 0.0
18/02:30pm 33.6 32.2 16.5 36 10.8 NW 19 26 10 14 1011.2 1011.1 0.0
18/02:00pm 33.6 32.7 17.7 38 10.2 NW 19 28 10 15 1011.5 1011.4 0.0
18/01:30pm 34.2 33.5 18.3 39 10.4 NNW 19 28 10 15 1011.9 1011.8 0.0
18/01:00pm 33.6 32.8 18.1 39 10.0 NW 19 28 10 15 1012.1 1012.0 0.0
18/12:30pm 35.3 36.0 16.1 32 12.2 E 7 15 4 8 1012.4 1012.3 0.0
18/12:00pm 35.2 35.3 13.9 27 13.1 NNE 6 13 3 7 1013.0 1012.9 0.0
18/11:30am 32.6 32.3 12.8 30 11.8 NW 6 9 3 5 1013.2 1013.1 0.0
18/11:00am 32.1 32.6 15.1 35 10.5 S 6 9 3 5 1013.5 1013.4 0.0
18/10:30am 30.1 30.1 14.2 38 9.6 S 7 9 4 5 1013.6 1013.5 0.0
18/10:00am 28.8 29.8 14.2 40 8.8 SSW 2 6 1 3 1013.4 1013.3 0.0
18/09:30am 26.3 28.1 18.4 61 5.0 SSW 6 7 3 4 1013.2 1013.1 0.0
18/09:00am 23.9 26.9 18.5 72 3.4 CALM 0 6 0 3 1013.1 1013.0 0.0
18/08:30am 22.4 25.7 19.0 81 2.2 CALM 0 0 0 0 1012.8 1012.7 0.0
18/08:00am 20.1 23.2 18.6 91 0.9 CALM 0 0 0 0 1012.6 1012.5 0.0
18/07:30am 19.3 21.9 17.4 89 1.2 CALM 0 0 0 0 1012.2 1012.1 0.0
18/07:00am 19.8 22.6 17.9 89 1.2 CALM 0 0 0 0 1011.7 1011.6 0.0
18/06:30am 20.4 23.5 18.7 90 1.1 CALM 0 0 0 0 1011.4 1011.3 0.0
18/06:00am 20.9 24.3 19.4 91 1.0 CALM 0 0 0 0 1011.1 1011.0 0.0
18/05:30am 20.1 23.2 18.6 91 0.9 CALM 0 0 0 0 1010.9 1010.8 0.0
18/05:00am 19.1 21.5 17.1 88 1.2 CALM 0 0 0 0 1010.8 1010.7 0.0
18/04:30am 19.5 22.0 17.3 87 1.3 CALM 0 0 0 0 1010.8 1010.7 0.0
18/04:00am 19.6 22.2 17.6 88 1.2 CALM 0 0 0 0 1010.8 1010.7 0.0
18/03:30am 19.9 22.7 17.9 88 1.2 CALM 0 0 0 0 1010.8 1010.7 0.0
18/03:00am 20.0 22.8 18.0 88 1.2 CALM 0 0 0 0 1011.0 1010.9 0.0
18/02:30am 20.2 23.1 18.1 88 1.3 CALM 0 0 0 0 1011.2 1011.1 0.0
18/02:00am 20.7 23.9 18.8 89 1.2 CALM 0 0 0 0 1011.6 1011.5 0.0
18/01:30am 21.0 24.0 18.4 85 1.6 CALM 0 0 0 0 1011.8 1011.7 0.0
18/01:00am 21.6 24.9 19.0 85 1.6 CALM 0 0 0 0 1012.0 1011.9 0.0
18/12:30am 21.9 24.9 18.5 81 2.1 CALM 0 0 0 0 1012.2 1012.1 0.0
18/12:00am 22.2 25.5 19.2 83 1.9 CALM 0 0 0 0 1012.3 1012.2 0.0
 
Date/Time
CST
Temp
°C
App
Temp
°C
Dew
Point
°C
Rel
Hum
%
Delta-T
°C
Wind Press
QNH
hPa
Press
MSL
hPa
Rain since
9am
mm
Dir  Spd
km/h
Gust
km/h
Spd
kts
Gust
kts
17/11:30pm 23.3 27.1 20.1 82 2.1 CALM 0 0 0 0 1012.3 1012.2 0.0
17/11:00pm 24.2 26.9 20.3 79 2.5 NE 6 7 3 4 1012.3 1012.2 0.0
17/10:30pm 24.6 27.0 19.7 74 3.2 NE 6 7 3 4 1012.2 1012.1 0.0
17/10:00pm 24.6 26.5 19.0 71 3.6 ENE 7 9 4 5 1012.1 1012.0 0.0
17/09:30pm 25.0 27.8 18.0 65 4.4 CALM 0 0 0 0 1011.9 1011.8 0.0
17/09:00pm 26.4 27.7 17.5 58 5.6 NNE 7 9 4 5 1011.6 1011.5 0.0

Other Formats:

Comma delimited format used in spreadsheet applications
http://www.bom.gov.au/fwo/IDD60801/IDD60801.94100.axf

JavaScript Object Notation format (JSON) in row-major order
http://www.bom.gov.au/fwo/IDD60801/IDD60801.94100.json